Time,TemperatureF,DewpointF,PressureIn,WindDirection,WindDirectionDegrees,WindSpeedMPH,WindSpeedGustMPH,Humidity,HourlyPrecipIn,Conditions,Clouds,dailyrainin,SolarRadiationWatts/m^2,SoftwareType,DateUTC
2017-07-23 00:02:00,70.1,63.6,29.94,WNW,288,0.0,0.0,80,0.00,,,0.00,0,Wunderground v.1.15,2017-07-22 22:02:00,
2017-07-23 00:07:00,70.1,64.0,29.94,WNW,288,0.0,0.0,81,0.00,,,0.00,0,Wunderground v.1.15,2017-07-22 22:07:00,
2017-07-23 00:13:00,70.1,64.0,29.94,WNW,288,0.0,0.0,81,0.00,,,0.00,0,Wunderground v.1.15,2017-07-22 22:13:00,
2017-07-23 00:19:00,70.0,63.9,29.94,WNW,288,0.0,0.0,81,0.00,,,0.00,0,Wunderground v.1.15,2017-07-22 22:19:00,
2017-07-23 00:25:00,69.6,63.5,29.94,WNW,288,0.0,0.0,81,0.00,,,0.00,0,Wunderground v.1.15,2017-07-22 22:25:00,
2017-07-23 00:32:00,69.2,63.5,29.94,WNW,288,0.0,0.0,82,0.00,,,0.00,0,Wunderground v.1.15,2017-07-22 22:32:00,
2017-07-23 00:37:00,69.1,63.4,29.94,WNW,288,0.0,0.0,82,0.00,,,0.00,0,Wunderground v.1.15,2017-07-22 22:37:00,
2017-07-23 00:42:00,69.0,63.6,29.94,WNW,287,0.0,0.0,83,0.00,,,0.00,0,Wunderground v.1.15,2017-07-22 22:42:00,
2017-07-23 00:48:00,68.9,63.5,29.94,WNW,288,0.0,1.0,83,0.00,,,0.00,0,Wunderground v.1.15,2017-07-22 22:48:00,
2017-07-23 00:53:00,68.8,63.4,29.94,WNW,288,1.0,2.0,83,0.00,,,0.00,0,Wunderground v.1.15,2017-07-22 22:53:00,
2017-07-23 00:59:00,68.6,63.2,29.94,WNW,288,1.0,2.0,83,0.00,,,0.00,0,Wunderground v.1.15,2017-07-22 22:59:00,
2017-07-23 01:05:00,68.4,63.4,29.94,WNW,288,2.0,2.0,84,0.00,,,0.00,0,Wunderground v.1.15,2017-07-22 23:05:00,
2017-07-23 01:10:00,68.5,63.5,29.94,WNW,288,1.0,1.0,84,0.00,,,0.00,0,Wunderground v.1.15,2017-07-22 23:10:00,
2017-07-23 01:15:00,68.6,63.6,29.94,WNW,288,0.0,1.0,84,0.00,,,0.00,0,Wunderground v.1.15,2017-07-22 23:15:00,
2017-07-23 01:22:00,68.8,63.8,29.94,WNW,288,0.0,0.0,84,0.00,,,0.00,0,Wunderground v.1.15,2017-07-22 23:22:00,
2017-07-23 01:27:00,68.4,63.0,29.94,WNW,288,0.0,0.0,83,0.00,,,0.00,0,Wunderground v.1.15,2017-07-22 23:27:00,
2017-07-23 01:33:00,68.1,63.4,29.95,WNW,286,1.0,2.0,85,0.00,,,0.00,0,Wunderground v.1.15,2017-07-22 23:33:00,
2017-07-23 01:39:00,68.8,64.1,29.95,WSW,246,1.0,3.0,85,0.00,,,0.00,0,Wunderground v.1.15,2017-07-22 23:39:00,
2017-07-23 01:45:00,69.0,64.3,29.95,WSW,245,1.0,4.0,85,0.00,,,0.00,0,Wunderground v.1.15,2017-07-22 23:45:00,
2017-07-23 01:52:00,69.4,64.7,29.95,North,360,2.0,5.0,85,0.00,,,0.00,0,Wunderground v.1.15,2017-07-22 23:52:00,
2017-07-23 01:57:00,69.6,64.9,29.95,West,271,4.0,12.0,85,0.00,,,0.00,0,Wunderground v.1.15,2017-07-22 23:57:00,
2017-07-23 02:02:00,69.8,64.7,29.95,WSW,249,6.0,12.0,84,0.00,,,0.00,0,Wunderground v.1.15,2017-07-23 00:02:00,
2017-07-23 02:07:00,70.0,64.6,29.95,West,267,7.0,12.0,83,0.00,,,0.00,0,Wunderground v.1.15,2017-07-23 00:07:00,
2017-07-23 02:13:00,69.9,64.5,29.95,North,360,8.0,12.0,83,0.00,,,0.00,0,Wunderground v.1.15,2017-07-23 00:13:00,
2017-07-23 02:19:00,69.9,64.5,29.94,WSW,251,9.0,13.0,83,0.00,,,0.00,0,Wunderground v.1.15,2017-07-23 00:19:00,
2017-07-23 02:24:00,69.9,64.5,29.94,North,360,10.0,10.0,83,0.00,,,0.00,0,Wunderground v.1.15,2017-07-23 00:24:00,
2017-07-23 02:30:00,69.8,64.4,29.94,WSW,248,9.0,11.0,83,0.00,,,0.00,0,Wunderground v.1.15,2017-07-23 00:30:00,
2017-07-23 02:35:00,69.8,64.4,29.94,WSW,252,9.0,11.0,83,0.00,,,0.00,0,Wunderground v.1.15,2017-07-23 00:35:00,
2017-07-23 02:42:00,69.7,64.3,29.94,West,265,9.0,9.0,83,0.00,,,0.00,0,Wunderground v.1.15,2017-07-23 00:42:00,
2017-07-23 02:47:00,69.7,64.3,29.94,West,265,7.0,9.0,83,0.00,,,0.00,0,Wunderground v.1.15,2017-07-23 00:47:00,
2017-07-23 02:53:00,69.7,64.3,29.94,WSW,254,5.0,6.0,83,0.00,,,0.00,0,Wunderground v.1.15,2017-07-23 00:53:00,
2017-07-23 02:59:00,69.5,64.1,29.94,WSW,251,3.0,6.0,83,0.00,,,0.00,0,Wunderground v.1.15,2017-07-23 00:59:00,
2017-07-23 03:05:00,69.3,64.3,29.95,WSW,245,2.0,4.0,84,0.00,,,0.00,0,Wunderground v.1.15,2017-07-23 01:05:00,
2017-07-23 03:10:00,69.2,64.2,29.95,WSW,244,2.0,2.0,84,0.00,,,0.00,0,Wunderground v.1.15,2017-07-23 01:10:00,
2017-07-23 03:15:00,69.2,64.2,29.95,SW,217,1.0,3.0,84,0.00,,,0.00,0,Wunderground v.1.15,2017-07-23 01:15:00,
2017-07-23 03:20:00,69.0,64.0,29.95,SW,217,1.0,1.0,84,0.00,,,0.00,0,Wunderground v.1.15,2017-07-23 01:20:00,
2017-07-23 03:25:00,68.9,64.2,29.95,SW,217,0.0,1.0,85,0.00,,,0.00,0,Wunderground v.1.15,2017-07-23 01:25:00,
2017-07-23 03:31:00,68.7,64.0,29.95,WSW,249,1.0,1.0,85,0.00,,,0.00,0,Wunderground v.1.15,2017-07-23 01:31:00,
2017-07-23 03:37:00,68.4,63.7,29.95,WSW,250,0.0,1.0,85,0.00,,,0.00,0,Wunderground v.1.15,2017-07-23 01:37:00,
2017-07-23 03:43:00,67.9,63.6,29.95,WSW,249,0.0,0.0,86,0.00,,,0.00,0,Wunderground v.1.15,2017-07-23 01:43:00,
2017-07-23 03:49:00,67.6,63.3,29.95,WSW,250,0.0,0.0,86,0.00,,,0.00,0,Wunderground v.1.15,2017-07-23 01:49:00,
2017-07-23 03:54:00,67.4,63.4,29.95,WSW,250,0.0,0.0,87,0.00,,,0.00,0,Wunderground v.1.15,2017-07-23 01:54:00,
2017-07-23 04:00:00,67.2,63.2,29.95,WSW,250,0.0,0.0,87,0.00,,,0.00,0,Wunderground v.1.15,2017-07-23 02:00:00,
2017-07-23 04:07:00,67.0,63.3,29.95,WSW,250,0.0,0.0,88,0.00,,,0.00,0,Wunderground v.1.15,2017-07-23 02:07:00,
2017-07-23 04:12:00,66.8,63.1,29.95,WSW,254,0.0,1.0,88,0.00,,,0.00,0,Wunderground v.1.15,2017-07-23 02:12:00,
2017-07-23 04:18:00,66.6,62.9,29.95,West,281,1.0,2.0,88,0.00,,,0.00,0,Wunderground v.1.15,2017-07-23 02:18:00,
2017-07-23 04:23:00,66.6,63.3,29.95,WNW,282,1.0,1.0,89,0.00,,,0.00,0,Wunderground v.1.15,2017-07-23 02:23:00,
2017-07-23 04:29:00,66.6,63.3,29.95,WNW,283,1.0,1.0,89,0.00,,,0.00,0,Wunderground v.1.15,2017-07-23 02:29:00,
2017-07-23 04:34:00,66.8,63.5,29.96,WNW,283,0.0,0.0,89,0.00,,,0.00,0,Wunderground v.1.15,2017-07-23 02:34:00,
2017-07-23 04:40:00,66.9,63.6,29.96,WNW,283,0.0,0.0,89,0.00,,,0.00,0,Wunderground v.1.15,2017-07-23 02:40:00,
2017-07-23 04:47:00,67.0,63.6,29.95,WNW,283,0.0,1.0,89,0.00,,,0.00,0,Wunderground v.1.15,2017-07-23 02:47:00,
2017-07-23 04:52:00,67.1,63.7,29.95,WNW,283,0.0,0.0,89,0.00,,,0.00,0,Wunderground v.1.15,2017-07-23 02:52:00,
2017-07-23 04:58:00,67.2,63.8,29.95,West,281,0.0,0.0,89,0.00,,,0.00,0,Wunderground v.1.15,2017-07-23 02:58:00,
2017-07-23 05:04:00,67.4,64.4,29.95,WNW,282,0.0,0.0,90,0.00,,,0.00,0,Wunderground v.1.15,2017-07-23 03:04:00,
2017-07-23 05:10:00,67.6,64.6,29.95,WNW,283,0.0,0.0,90,0.00,,,0.00,0,Wunderground v.1.15,2017-07-23 03:10:00,
2017-07-23 05:16:00,67.8,64.8,29.96,West,281,0.0,1.0,90,0.00,,,0.00,0,Wunderground v.1.15,2017-07-23 03:16:00,
2017-07-23 05:22:00,67.8,64.4,29.96,WSW,245,1.0,3.0,89,0.00,,,0.00,0,Wunderground v.1.15,2017-07-23 03:22:00,
2017-07-23 05:28:00,67.7,64.3,29.96,WSW,244,2.0,3.0,89,0.00,,,0.00,0,Wunderground v.1.15,2017-07-23 03:28:00,
2017-07-23 05:34:00,67.8,64.4,29.96,SW,233,3.0,5.0,89,0.00,,,0.00,0,Wunderground v.1.15,2017-07-23 03:34:00,
2017-07-23 05:39:00,67.6,64.2,29.96,WSW,244,3.0,5.0,89,0.00,,,0.00,0,Wunderground v.1.15,2017-07-23 03:39:00,
2017-07-23 05:45:00,67.6,64.2,29.96,WSW,242,3.0,6.0,89,0.00,,,0.00,0,Wunderground v.1.15,2017-07-23 03:45:00,
2017-07-23 05:52:00,67.5,64.1,29.96,SW,236,3.0,4.0,89,0.00,,,0.00,0,Wunderground v.1.15,2017-07-23 03:52:00,
2017-07-23 05:58:00,67.4,64.0,29.96,SW,226,4.0,9.0,89,0.00,,,0.00,0,Wunderground v.1.15,2017-07-23 03:58:00,
2017-07-23 06:03:00,67.3,63.9,29.97,SW,229,5.0,5.0,89,0.00,,,0.00,9,Wunderground v.1.15,2017-07-23 04:03:00,
2017-07-23 06:09:00,67.6,64.2,29.97,WSW,239,4.0,5.0,89,0.00,,,0.00,19,Wunderground v.1.15,2017-07-23 04:09:00,
2017-07-23 06:14:00,67.9,64.5,29.97,SW,219,4.0,4.0,89,0.00,,,0.00,37,Wunderground v.1.15,2017-07-23 04:14:00,
2017-07-23 06:19:00,67.9,64.2,29.96,SW,223,2.0,4.0,88,0.00,,,0.00,53,Wunderground v.1.15,2017-07-23 04:19:00,
2017-07-23 06:25:00,68.0,64.6,29.96,SSW,211,3.0,5.0,89,0.00,,,0.00,53,Wunderground v.1.15,2017-07-23 04:25:00,
2017-07-23 06:31:00,68.0,64.6,29.97,SSW,200,3.0,3.0,89,0.00,,,0.00,83,Wunderground v.1.15,2017-07-23 04:31:00,
2017-07-23 06:37:00,68.0,65.0,29.97,SSW,205,3.0,4.0,90,0.00,,,0.00,107,Wunderground v.1.15,2017-07-23 04:37:00,
2017-07-23 06:42:00,68.1,65.1,29.97,SSW,206,2.0,2.0,90,0.00,,,0.00,111,Wunderground v.1.15,2017-07-23 04:42:00,
2017-07-23 06:48:00,68.4,65.4,29.96,North,360,1.0,3.0,90,0.00,,,0.00,98,Wunderground v.1.15,2017-07-23 04:48:00,
2017-07-23 06:53:00,68.7,65.3,29.96,SSW,195,1.0,2.0,89,0.00,,,0.00,113,Wunderground v.1.15,2017-07-23 04:53:00,
2017-07-23 06:59:00,68.9,65.5,29.96,SSW,195,1.0,3.0,89,0.00,,,0.00,86,Wunderground v.1.15,2017-07-23 04:59:00,
2017-07-23 07:05:00,68.9,65.2,29.97,SSW,195,0.0,0.0,88,0.00,,,0.00,83,Wunderground v.1.15,2017-07-23 05:05:00,
2017-07-23 07:10:00,68.6,64.9,29.97,SSW,199,1.0,3.0,88,0.00,,,0.00,113,Wunderground v.1.15,2017-07-23 05:10:00,
2017-07-23 07:15:00,68.6,64.9,29.96,SSW,199,2.0,3.0,88,0.00,,,0.00,141,Wunderground v.1.15,2017-07-23 05:15:00,
2017-07-23 07:22:00,69.0,65.3,29.96,SSW,209,2.0,2.0,88,0.00,,,0.00,163,Wunderground v.1.15,2017-07-23 05:22:00,
2017-07-23 07:28:00,69.3,64.9,29.96,SSW,207,1.0,6.0,86,0.00,,,0.00,183,Wunderground v.1.15,2017-07-23 05:28:00,
2017-07-23 07:34:00,69.7,64.6,29.96,SW,225,2.0,3.0,84,0.00,,,0.00,199,Wunderground v.1.15,2017-07-23 05:34:00,
2017-07-23 07:39:00,70.0,64.2,29.96,SW,215,3.0,5.0,82,0.00,,,0.00,211,Wunderground v.1.15,2017-07-23 05:39:00,
2017-07-23 07:45:00,70.2,64.4,29.96,SSW,195,4.0,5.0,82,0.00,,,0.00,237,Wunderground v.1.15,2017-07-23 05:45:00,
2017-07-23 07:50:00,70.5,64.7,29.96,SW,219,3.0,5.0,82,0.00,,,0.00,246,Wunderground v.1.15,2017-07-23 05:50:00,
2017-07-23 07:56:00,70.6,64.5,29.96,SSW,209,3.0,12.0,81,0.00,,,0.00,267,Wunderground v.1.15,2017-07-23 05:56:00,
2017-07-23 08:01:00,70.7,64.9,29.96,SSW,192,6.0,6.0,82,0.00,,,0.00,281,Wunderground v.1.15,2017-07-23 06:01:00,
2017-07-23 08:07:00,70.9,64.8,29.96,WSW,250,6.0,7.0,81,0.00,,,0.00,297,Wunderground v.1.15,2017-07-23 06:07:00,
2017-07-23 08:12:00,71.2,64.7,29.96,WSW,240,6.0,9.0,80,0.00,,,0.00,315,Wunderground v.1.15,2017-07-23 06:12:00,
2017-07-23 08:17:00,71.3,64.8,29.96,SW,216,6.0,11.0,80,0.00,,,0.00,325,Wunderground v.1.15,2017-07-23 06:17:00,
2017-07-23 08:23:00,71.2,64.7,29.96,SW,231,8.0,14.0,80,0.00,,,0.00,352,Wunderground v.1.15,2017-07-23 06:23:00,
2017-07-23 08:29:00,71.1,64.6,29.96,SW,221,10.0,14.0,80,0.00,,,0.00,369,Wunderground v.1.15,2017-07-23 06:29:00,
2017-07-23 08:34:00,70.7,64.9,29.96,WSW,242,11.0,15.0,82,0.00,,,0.00,385,Wunderground v.1.15,2017-07-23 06:34:00,
2017-07-23 08:39:00,70.6,65.2,29.96,North,360,11.0,15.0,83,0.00,,,0.00,394,Wunderground v.1.15,2017-07-23 06:39:00,
2017-07-23 08:44:00,70.6,65.2,29.96,North,360,10.0,19.0,83,0.00,,,0.00,408,Wunderground v.1.15,2017-07-23 06:44:00,
2017-07-23 08:50:00,70.4,65.3,29.96,WSW,243,11.0,19.0,84,0.00,,,0.00,429,Wunderground v.1.15,2017-07-23 06:50:00,
2017-07-23 08:56:00,70.5,65.4,29.96,SW,229,10.0,12.0,84,0.00,,,0.00,439,Wunderground v.1.15,2017-07-23 06:56:00,
2017-07-23 09:02:00,70.6,65.5,29.96,SSW,206,10.0,10.0,84,0.00,,,0.00,459,Wunderground v.1.15,2017-07-23 07:02:00,
2017-07-23 09:08:00,70.7,65.6,29.96,SW,221,10.0,12.0,84,0.00,,,0.00,494,Wunderground v.1.15,2017-07-23 07:08:00,
2017-07-23 09:13:00,70.7,65.6,29.96,North,360,9.0,11.0,84,0.00,,,0.00,497,Wunderground v.1.15,2017-07-23 07:13:00,
2017-07-23 09:19:00,71.3,65.9,29.97,South,169,8.0,11.0,83,0.00,,,0.00,508,Wunderground v.1.15,2017-07-23 07:19:00,
2017-07-23 09:25:00,71.0,65.6,29.97,South,190,8.0,12.0,83,0.00,,,0.00,527,Wunderground v.1.15,2017-07-23 07:25:00,
2017-07-23 09:30:00,71.0,65.6,29.97,South,186,9.0,12.0,83,0.00,,,0.00,533,Wunderground v.1.15,2017-07-23 07:30:00,
2017-07-23 09:36:00,71.3,65.9,29.97,South,176,8.0,9.0,83,0.00,,,0.00,557,Wunderground v.1.15,2017-07-23 07:36:00,
2017-07-23 09:42:00,71.7,65.9,29.97,South,176,7.0,12.0,82,0.00,,,0.00,559,Wunderground v.1.15,2017-07-23 07:42:00,
2017-07-23 09:48:00,72.0,65.8,29.96,South,183,7.0,10.0,81,0.00,,,0.00,575,Wunderground v.1.15,2017-07-23 07:48:00,
2017-07-23 09:54:00,72.5,66.0,29.96,WSW,239,7.0,7.0,80,0.00,,,0.00,582,Wunderground v.1.15,2017-07-23 07:54:00,
2017-07-23 10:00:00,73.1,65.8,29.96,SW,221,7.0,8.0,78,0.00,,,0.00,615,Wunderground v.1.15,2017-07-23 08:00:00,
2017-07-23 10:05:00,73.1,65.8,29.96,SSW,210,8.0,14.0,78,0.00,,,0.00,631,Wunderground v.1.15,2017-07-23 08:05:00,
2017-07-23 10:10:00,73.1,66.2,29.96,SSW,194,9.0,11.0,79,0.00,,,0.00,636,Wunderground v.1.15,2017-07-23 08:10:00,
2017-07-23 10:17:00,73.2,65.9,29.97,South,182,9.0,12.0,78,0.00,,,0.00,679,Wunderground v.1.15,2017-07-23 08:17:00,
2017-07-23 10:22:00,72.9,65.6,29.97,North,360,11.0,14.0,78,0.00,,,0.00,668,Wunderground v.1.15,2017-07-23 08:22:00,
2017-07-23 10:27:00,73.0,66.1,29.97,SW,229,11.0,14.0,79,0.00,,,0.00,684,Wunderground v.1.15,2017-07-23 08:27:00,
2017-07-23 10:33:00,73.5,66.6,29.97,SSW,194,9.0,18.0,79,0.00,,,0.00,737,Wunderground v.1.15,2017-07-23 08:33:00,
2017-07-23 10:39:00,74.0,66.3,29.97,SSW,192,9.0,18.0,77,0.00,,,0.00,707,Wunderground v.1.15,2017-07-23 08:39:00,
2017-07-23 10:44:00,73.5,65.8,29.97,SSW,198,9.0,16.0,77,0.00,,,0.00,754,Wunderground v.1.15,2017-07-23 08:44:00,
2017-07-23 10:50:00,73.8,66.1,29.97,South,176,10.0,17.0,77,0.00,,,0.00,798,Wunderground v.1.15,2017-07-23 08:50:00,
2017-07-23 10:55:00,73.7,66.4,29.97,SW,222,9.0,17.0,78,0.00,,,0.00,765,Wunderground v.1.15,2017-07-23 08:55:00,
2017-07-23 11:01:00,74.0,66.7,29.97,North,360,8.0,9.0,78,0.00,,,0.00,749,Wunderground v.1.15,2017-07-23 09:01:00,
2017-07-23 11:07:00,74.5,66.4,29.97,WSW,240,9.0,14.0,76,0.00,,,0.00,893,Wunderground v.1.15,2017-07-23 09:07:00,
2017-07-23 11:12:00,75.2,66.7,29.97,SW,230,7.0,12.0,75,0.00,,,0.00,877,Wunderground v.1.15,2017-07-23 09:12:00,
2017-07-23 11:18:00,74.8,65.6,29.97,SW,227,9.0,15.0,73,0.00,,,0.00,916,Wunderground v.1.15,2017-07-23 09:18:00,
2017-07-23 11:23:00,75.0,66.5,29.97,North,360,9.0,14.0,75,0.00,,,0.00,323,Wunderground v.1.15,2017-07-23 09:23:00,
2017-07-23 11:29:00,74.8,66.0,29.97,SSW,210,10.0,14.0,74,0.00,,,0.00,953,Wunderground v.1.15,2017-07-23 09:29:00,
2017-07-23 11:34:00,75.6,66.7,29.97,WSW,254,9.0,10.0,74,0.00,,,0.00,274,Wunderground v.1.15,2017-07-23 09:34:00,
2017-07-23 11:40:00,75.4,65.7,29.97,North,360,7.0,15.0,72,0.00,,,0.00,875,Wunderground v.1.15,2017-07-23 09:40:00,
2017-07-23 11:47:00,75.6,65.9,29.97,North,360,10.0,15.0,72,0.00,,,0.00,905,Wunderground v.1.15,2017-07-23 09:47:00,
2017-07-23 11:52:00,75.7,66.4,29.97,SW,232,10.0,10.0,73,0.00,,,0.00,962,Wunderground v.1.15,2017-07-23 09:52:00,
2017-07-23 11:57:00,76.0,66.7,29.97,North,360,10.0,14.0,73,0.00,,,0.00,360,Wunderground v.1.15,2017-07-23 09:57:00,
2017-07-23 12:03:00,76.6,66.5,29.96,SSW,196,8.0,12.0,71,0.00,,,0.00,828,Wunderground v.1.15,2017-07-23 10:03:00,
2017-07-23 12:09:00,77.0,65.2,29.96,SW,217,8.0,20.0,67,0.00,,,0.00,849,Wunderground v.1.15,2017-07-23 10:09:00,
2017-07-23 12:14:00,76.9,65.5,29.96,North,360,9.0,12.0,68,0.00,,,0.00,856,Wunderground v.1.15,2017-07-23 10:14:00,
2017-07-23 12:20:00,77.4,65.6,29.96,South,191,10.0,10.0,67,0.00,,,0.00,849,Wunderground v.1.15,2017-07-23 10:20:00,
2017-07-23 12:25:00,77.8,65.5,29.96,WSW,248,8.0,10.0,66,0.00,,,0.00,856,Wunderground v.1.15,2017-07-23 10:25:00,
2017-07-23 12:32:00,78.4,65.7,29.96,North,360,9.0,11.0,65,0.00,,,0.00,816,Wunderground v.1.15,2017-07-23 10:32:00,
2017-07-23 12:37:00,78.3,65.1,29.96,South,180,11.0,16.0,64,0.00,,,0.00,835,Wunderground v.1.15,2017-07-23 10:37:00,
2017-07-23 12:42:00,78.3,65.6,29.96,West,267,11.0,12.0,65,0.00,,,0.00,823,Wunderground v.1.15,2017-07-23 10:42:00,
2017-07-23 12:48:00,78.5,65.3,29.96,SW,214,10.0,14.0,64,0.00,,,0.00,823,Wunderground v.1.15,2017-07-23 10:48:00,
2017-07-23 12:53:00,78.9,65.2,29.96,SSW,196,10.0,15.0,63,0.00,,,0.00,846,Wunderground v.1.15,2017-07-23 10:53:00,
2017-07-23 12:59:00,79.1,65.4,29.96,North,360,10.0,15.0,63,0.00,,,0.00,828,Wunderground v.1.15,2017-07-23 10:59:00,
2017-07-23 13:05:00,79.2,65.1,29.95,North,360,11.0,22.0,62,0.00,,,0.00,854,Wunderground v.1.15,2017-07-23 11:05:00,
2017-07-23 13:10:00,79.2,65.1,29.95,North,360,13.0,15.0,62,0.00,,,0.00,844,Wunderground v.1.15,2017-07-23 11:10:00,